createdAt,value
2022-12-20T00:00:16.301Z,1011.59
2022-12-20T00:01:16.552Z,1011.56
2022-12-20T00:02:17.026Z,1011.56
2022-12-20T00:03:17.244Z,1011.58
2022-12-20T00:04:17.393Z,1011.55
2022-12-20T00:05:17.693Z,1011.53
2022-12-20T00:06:18.050Z,1011.53
2022-12-20T00:07:18.283Z,1011.50
2022-12-20T00:08:18.566Z,1011.48
2022-12-20T00:09:18.878Z,1011.46
2022-12-20T00:10:19.140Z,1011.47
2022-12-20T00:11:19.420Z,1011.39
2022-12-20T00:12:19.653Z,1011.39
2022-12-20T00:13:19.970Z,1011.42
2022-12-20T00:14:20.245Z,1011.39
2022-12-20T00:15:20.520Z,1011.37
2022-12-20T00:16:20.802Z,1011.38
2022-12-20T00:17:21.127Z,1011.37
2022-12-20T00:18:21.389Z,1011.37
2022-12-20T00:19:21.624Z,1011.35
2022-12-20T00:20:21.950Z,1011.38
2022-12-20T00:21:22.238Z,1011.33
2022-12-20T00:22:22.520Z,1011.29
2022-12-20T00:23:22.792Z,1011.29
2022-12-20T00:24:26.394Z,1011.22
2022-12-20T00:25:23.412Z,1011.24
2022-12-20T00:26:23.654Z,1011.22
2022-12-20T00:27:23.915Z,1011.15
2022-12-20T00:28:24.196Z,1011.14
2022-12-20T00:29:24.579Z,1011.07
2022-12-20T00:30:24.807Z,1011.08
2022-12-20T00:31:25.203Z,1011.03
2022-12-20T00:32:25.335Z,1011.03
2022-12-20T00:33:25.624Z,1011.02
2022-12-20T00:34:25.908Z,1011.00
2022-12-20T00:35:26.221Z,1010.97
2022-12-20T00:36:26.513Z,1010.94
2022-12-20T00:37:26.791Z,1010.96
2022-12-20T00:38:27.028Z,1010.96
2022-12-20T00:39:27.307Z,1010.88
2022-12-20T00:40:27.635Z,1010.83
2022-12-20T00:41:27.889Z,1010.79
2022-12-20T00:42:28.189Z,1010.80
2022-12-20T00:43:28.521Z,1010.84
2022-12-20T00:44:28.743Z,1010.86
2022-12-20T00:45:29.070Z,1010.83
2022-12-20T00:46:29.387Z,1010.88
2022-12-20T00:47:29.691Z,1010.90
2022-12-20T00:48:29.951Z,1010.88
2022-12-20T00:49:30.186Z,1010.85
2022-12-20T00:50:30.510Z,1010.83
2022-12-20T00:51:30.786Z,1010.80
2022-12-20T00:52:31.103Z,1010.80
2022-12-20T00:53:31.360Z,1010.83
2022-12-20T00:54:31.627Z,1010.87
2022-12-20T00:55:31.904Z,1010.90
2022-12-20T00:56:32.176Z,1010.89
2022-12-20T00:57:32.432Z,1010.90
2022-12-20T00:58:32.703Z,1010.94
2022-12-20T00:59:32.976Z,1010.87
2022-12-20T01:00:33.479Z,1010.95
2022-12-20T01:01:33.682Z,1010.91
2022-12-20T01:02:34.032Z,1010.95
2022-12-20T01:03:34.155Z,1011.01
2022-12-20T01:04:34.317Z,1011.03
2022-12-20T01:05:34.610Z,1011.03
2022-12-20T01:06:34.922Z,1011.05
2022-12-20T01:07:35.192Z,1011.04
2022-12-20T01:08:35.519Z,1011.05
2022-12-20T01:09:35.742Z,1011.04
2022-12-20T01:10:36.014Z,1011.11
2022-12-20T01:11:36.349Z,1011.13
2022-12-20T01:12:36.593Z,1011.14
2022-12-20T01:13:36.904Z,1011.18
2022-12-20T01:14:37.185Z,1011.19
2022-12-20T01:15:37.412Z,1011.17
2022-12-20T01:16:37.874Z,1011.23
2022-12-20T01:17:38.067Z,1011.27
2022-12-20T01:18:38.330Z,1011.31
2022-12-20T01:19:38.594Z,1011.32
2022-12-20T01:20:38.838Z,1011.32
2022-12-20T01:21:39.166Z,1011.35
2022-12-20T01:22:45.523Z,1011.35
2022-12-20T01:23:40.661Z,1011.37
2022-12-20T01:24:39.961Z,1011.24
2022-12-20T01:25:40.273Z,1011.25
2022-12-20T01:26:40.541Z,1011.24
2022-12-20T01:27:40.816Z,1011.21
2022-12-20T01:28:41.101Z,1011.20
2022-12-20T01:29:41.343Z,1011.19
2022-12-20T01:30:41.611Z,1011.21
2022-12-20T01:31:41.928Z,1011.27
2022-12-20T01:32:42.206Z,1011.29
2022-12-20T01:33:42.473Z,1011.30
2022-12-20T01:34:42.723Z,1011.33
2022-12-20T01:35:43.005Z,1011.31
2022-12-20T01:36:43.263Z,1011.25
2022-12-20T01:37:43.516Z,1011.22
2022-12-20T01:38:43.753Z,1011.14
2022-12-20T01:39:44.046Z,1011.13
2022-12-20T01:40:44.289Z,1011.15
2022-12-20T01:41:44.623Z,1011.13
2022-12-20T01:42:44.875Z,1011.17
2022-12-20T01:43:45.164Z,1011.18
2022-12-20T01:44:45.433Z,1011.14
2022-12-20T01:45:45.768Z,1011.13
2022-12-20T01:46:45.929Z,1011.13
2022-12-20T01:47:46.168Z,1011.06
2022-12-20T01:48:46.444Z,1011.06
2022-12-20T01:49:46.712Z,1011.06
2022-12-20T01:50:47.027Z,1011.06
2022-12-20T01:51:47.280Z,1011.10
2022-12-20T01:52:47.561Z,1011.09
2022-12-20T01:53:47.774Z,1011.08
2022-12-20T01:54:48.077Z,1011.04
2022-12-20T01:55:48.332Z,1011.07
2022-12-20T01:56:48.621Z,1011.10
2022-12-20T01:57:48.914Z,1011.09
2022-12-20T01:58:49.169Z,1011.06
2022-12-20T01:59:49.421Z,1011.07
2022-12-20T02:00:49.711Z,1011.08
2022-12-20T02:01:50.088Z,1011.02
2022-12-20T02:02:50.409Z,1011.03
2022-12-20T02:03:50.590Z,1011.06
2022-12-20T02:04:50.825Z,1011.08
2022-12-20T02:05:51.112Z,1011.08
2022-12-20T02:06:51.432Z,1011.11
2022-12-20T02:07:51.699Z,1011.09
2022-12-20T02:08:51.942Z,1011.07
2022-12-20T02:09:52.220Z,1011.10
2022-12-20T02:10:52.522Z,1011.12
2022-12-20T02:11:52.807Z,1011.09
2022-12-20T02:12:53.071Z,1011.06
2022-12-20T02:13:53.338Z,1011.07
2022-12-20T02:14:53.607Z,1011.00
2022-12-20T02:15:53.981Z,1011.00
2022-12-20T02:16:54.157Z,1010.95
2022-12-20T02:17:54.444Z,1010.97
2022-12-20T02:18:54.694Z,1010.98
2022-12-20T02:19:54.967Z,1010.97
2022-12-20T02:20:55.222Z,1010.92
2022-12-20T02:21:55.479Z,1011.01
2022-12-20T02:22:55.735Z,1010.95
2022-12-20T02:23:55.998Z,1010.99
2022-12-20T02:24:56.236Z,1010.96
2022-12-20T02:25:56.551Z,1010.96
2022-12-20T02:26:56.802Z,1010.96
2022-12-20T02:27:57.049Z,1010.98
2022-12-20T02:28:57.368Z,1010.93
2022-12-20T02:29:57.582Z,1010.90
2022-12-20T02:30:57.927Z,1010.89
2022-12-20T02:31:58.269Z,1010.85
2022-12-20T02:32:58.423Z,1010.94
2022-12-20T02:33:58.683Z,1010.89
2022-12-20T02:34:58.976Z,1010.92
2022-12-20T02:35:59.291Z,1010.87
2022-12-20T02:36:59.597Z,1010.83
2022-12-20T02:37:59.825Z,1010.80
2022-12-20T02:39:00.100Z,1010.74
2022-12-20T02:40:00.398Z,1010.72
2022-12-20T02:41:00.669Z,1010.77
2022-12-20T02:42:00.945Z,1010.75
2022-12-20T02:43:01.210Z,1010.78
2022-12-20T02:44:01.450Z,1010.77
2022-12-20T02:45:01.763Z,1010.86
2022-12-20T02:46:02.093Z,1010.87
2022-12-20T02:47:02.344Z,1010.90
2022-12-20T02:48:02.619Z,1010.91
2022-12-20T02:49:02.861Z,1010.92
2022-12-20T02:50:03.164Z,1010.89
2022-12-20T02:51:03.434Z,1010.84
2022-12-20T02:52:03.750Z,1010.79
2022-12-20T02:53:04.017Z,1010.74
2022-12-20T02:54:04.244Z,1010.74
2022-12-20T02:55:04.547Z,1010.77
2022-12-20T02:56:04.847Z,1010.71
2022-12-20T02:57:05.095Z,1010.77
2022-12-20T02:58:05.346Z,1010.75
2022-12-20T02:59:05.623Z,1010.78
2022-12-20T03:00:05.897Z,1010.82
2022-12-20T03:01:06.245Z,1010.80
2022-12-20T03:02:06.756Z,1010.85
2022-12-20T03:03:06.919Z,1010.90
2022-12-20T03:04:07.068Z,1010.90
2022-12-20T03:05:07.294Z,1010.93
2022-12-20T03:06:07.639Z,1010.88
2022-12-20T03:07:07.912Z,1010.90
2022-12-20T03:08:08.148Z,1010.89
2022-12-20T03:09:08.431Z,1010.86
2022-12-20T03:10:08.728Z,1010.80
2022-12-20T03:11:09.016Z,1010.74
2022-12-20T03:12:09.262Z,1010.71
2022-12-20T03:13:09.557Z,1010.64
2022-12-20T03:14:09.859Z,1010.57
2022-12-20T03:15:10.131Z,1010.52
2022-12-20T03:16:10.412Z,1010.50
2022-12-20T03:17:10.702Z,1010.49
2022-12-20T03:18:10.933Z,1010.51
2022-12-20T03:19:11.215Z,1010.54
2022-12-20T03:20:11.503Z,1010.64
2022-12-20T03:21:11.823Z,1010.64
2022-12-20T03:22:12.056Z,1010.61
2022-12-20T03:23:12.326Z,1010.57
2022-12-20T03:24:12.596Z,1010.60
2022-12-20T03:25:12.839Z,1010.60
2022-12-20T03:26:13.120Z,1010.47
2022-12-20T03:27:13.375Z,1010.47
2022-12-20T03:28:13.633Z,1010.48
2022-12-20T03:29:13.925Z,1010.47
2022-12-20T03:30:14.152Z,1010.52
2022-12-20T03:31:14.509Z,1010.50
2022-12-20T03:32:14.780Z,1010.48
2022-12-20T03:33:15.026Z,1010.47
2022-12-20T03:34:15.349Z,1010.43
2022-12-20T03:35:15.574Z,1010.37
2022-12-20T03:36:15.934Z,1010.35
2022-12-20T03:37:16.211Z,1010.33
2022-12-20T03:38:16.464Z,1010.34
2022-12-20T03:39:16.691Z,1010.39
2022-12-20T03:40:16.990Z,1010.38
2022-12-20T03:41:17.350Z,1010.38
2022-12-20T03:42:17.573Z,1010.37
2022-12-20T03:43:17.855Z,1010.44
2022-12-20T03:44:18.194Z,1010.42
2022-12-20T03:45:18.451Z,1010.47
2022-12-20T03:46:18.806Z,1010.45
2022-12-20T03:47:19.072Z,1010.55
2022-12-20T03:48:19.362Z,1010.57
2022-12-20T03:49:19.614Z,1010.66
2022-12-20T03:50:19.847Z,1010.66
2022-12-20T03:51:20.168Z,1010.72
2022-12-20T03:52:20.468Z,1010.73
2022-12-20T03:53:20.684Z,1010.72
2022-12-20T03:54:21.011Z,1010.72
2022-12-20T03:55:21.347Z,1010.62
2022-12-20T03:56:21.693Z,1010.60
2022-12-20T03:57:21.989Z,1010.63
2022-12-20T03:58:22.302Z,1010.60
2022-12-20T03:59:22.653Z,1010.62
2022-12-20T04:00:22.951Z,1010.61
2022-12-20T04:01:23.301Z,1010.57
2022-12-20T04:02:23.723Z,1010.55
2022-12-20T04:03:23.884Z,1010.49
2022-12-20T04:04:24.174Z,1010.53
2022-12-20T04:05:24.516Z,1010.64
2022-12-20T04:06:24.815Z,1010.61
2022-12-20T04:07:25.082Z,1010.66
2022-12-20T04:08:25.366Z,1010.66
2022-12-20T04:09:25.608Z,1010.69
2022-12-20T04:10:25.934Z,1010.70
2022-12-20T04:11:26.202Z,1010.72
2022-12-20T04:12:26.458Z,1010.69
2022-12-20T04:13:26.736Z,1010.64
2022-12-20T04:14:26.994Z,1010.65
2022-12-20T04:15:27.283Z,1010.56
2022-12-20T04:16:27.651Z,1010.47
2022-12-20T04:17:27.837Z,1010.48
2022-12-20T04:18:28.079Z,1010.44
2022-12-20T04:19:28.348Z,1010.43
2022-12-20T04:20:28.618Z,1010.48
2022-12-20T04:21:28.913Z,1010.51
2022-12-20T04:22:29.220Z,1010.44
2022-12-20T04:23:29.495Z,1010.48
2022-12-20T04:24:29.768Z,1010.51
2022-12-20T04:25:30.014Z,1010.51
2022-12-20T04:26:30.346Z,1010.55
2022-12-20T04:27:30.588Z,1010.56
2022-12-20T04:28:30.853Z,1010.56
2022-12-20T04:29:31.090Z,1010.53
2022-12-20T04:30:31.412Z,1010.45
2022-12-20T04:31:31.880Z,1010.43
2022-12-20T04:32:31.933Z,1010.46
2022-12-20T04:33:32.258Z,1010.51
2022-12-20T04:34:32.534Z,1010.52
2022-12-20T04:35:32.818Z,1010.45
2022-12-20T04:36:33.122Z,1010.44
2022-12-20T04:37:33.382Z,1010.38
2022-12-20T04:38:33.609Z,1010.29
2022-12-20T04:39:33.888Z,1010.28
2022-12-20T04:40:34.170Z,1010.30
2022-12-20T04:41:34.479Z,1010.29
2022-12-20T04:42:34.744Z,1010.33
2022-12-20T04:43:35.028Z,1010.36
2022-12-20T04:44:35.299Z,1010.37
2022-12-20T04:45:35.533Z,1010.44
2022-12-20T04:46:35.919Z,1010.40
2022-12-20T04:47:36.047Z,1010.43
2022-12-20T04:48:55.569Z,1010.46
2022-12-20T04:49:37.601Z,1010.41
2022-12-20T04:50:36.930Z,1010.42
2022-12-20T04:51:44.233Z,1010.37
2022-12-20T04:52:40.940Z,1010.45
2022-12-20T04:53:38.691Z,1010.49
2022-12-20T04:54:38.019Z,1010.45
2022-12-20T04:55:38.278Z,1010.44
2022-12-20T04:56:38.502Z,1010.44
2022-12-20T04:57:38.811Z,1010.40
2022-12-20T04:58:39.133Z,1010.41
2022-12-20T04:59:39.378Z,1010.42
2022-12-20T05:00:39.678Z,1010.39
2022-12-20T05:01:40.037Z,1010.31
2022-12-20T05:02:40.422Z,1010.33
2022-12-20T05:03:40.475Z,1010.29
2022-12-20T05:04:40.720Z,1010.25
2022-12-20T05:05:41.015Z,1010.23
2022-12-20T05:06:41.318Z,1010.20
2022-12-20T05:07:41.634Z,1010.20
2022-12-20T05:08:41.879Z,1010.17
2022-12-20T05:09:42.157Z,1010.25
2022-12-20T05:10:42.428Z,1010.20
2022-12-20T05:11:42.711Z,1010.16
2022-12-20T05:12:43.004Z,1010.14
2022-12-20T05:13:43.255Z,1010.20
2022-12-20T05:14:43.587Z,1010.20
2022-12-20T05:15:43.861Z,1010.24
2022-12-20T05:16:44.281Z,1010.26
2022-12-20T05:17:44.433Z,1010.27
2022-12-20T05:18:48.902Z,1010.24
2022-12-20T05:19:45.022Z,1010.26
2022-12-20T05:20:45.263Z,1010.25
2022-12-20T05:21:45.557Z,1010.20
2022-12-20T05:22:45.843Z,1010.16
2022-12-20T05:23:46.102Z,1010.17
2022-12-20T05:24:46.433Z,1010.14
2022-12-20T05:25:46.702Z,1010.15
2022-12-20T05:26:46.992Z,1010.16
2022-12-20T05:27:47.248Z,1010.16
2022-12-20T05:28:47.599Z,1010.21
2022-12-20T05:29:47.875Z,1010.17
2022-12-20T05:30:48.157Z,1010.14
2022-12-20T05:31:48.570Z,1010.22
2022-12-20T05:32:48.734Z,1010.24
2022-12-20T05:33:49.051Z,1010.22
2022-12-20T05:34:49.309Z,1010.18
2022-12-20T05:35:49.595Z,1010.17
2022-12-20T05:36:49.863Z,1010.14
2022-12-20T05:37:50.829Z,1010.18
2022-12-20T05:38:50.521Z,1010.10
2022-12-20T05:39:50.868Z,1010.05
2022-12-20T05:40:51.034Z,1010.02
2022-12-20T05:41:51.360Z,1009.95
2022-12-20T05:42:51.616Z,1009.87
2022-12-20T05:43:51.902Z,1009.94
2022-12-20T05:44:52.231Z,1009.89
2022-12-20T05:45:52.511Z,1009.91
2022-12-20T05:46:52.779Z,1009.85
2022-12-20T05:47:53.141Z,1009.86
2022-12-20T05:48:53.420Z,1009.85
2022-12-20T05:49:53.691Z,1009.84
2022-12-20T05:50:53.998Z,1009.88
2022-12-20T05:51:54.269Z,1009.91
2022-12-20T05:52:54.572Z,1009.91
2022-12-20T05:53:54.849Z,1009.90
2022-12-20T05:54:55.103Z,1009.95
2022-12-20T05:55:55.411Z,1009.98
2022-12-20T05:56:55.684Z,1009.95
2022-12-20T05:57:56.007Z,1009.93
2022-12-20T05:58:56.340Z,1009.98
2022-12-20T05:59:56.615Z,1009.98
2022-12-20T06:00:56.910Z,1009.93
2022-12-20T06:01:57.242Z,1009.94
2022-12-20T06:02:57.718Z,1009.89
2022-12-20T06:03:57.802Z,1009.89
2022-12-20T06:04:58.090Z,1009.86
2022-12-20T06:05:58.402Z,1009.82
2022-12-20T06:06:58.759Z,1009.88
2022-12-20T06:07:59.065Z,1009.85
2022-12-20T06:08:59.326Z,1009.86
2022-12-20T06:09:59.593Z,1009.84
2022-12-20T06:10:59.898Z,1009.81
2022-12-20T06:12:00.177Z,1009.83
2022-12-20T06:13:00.472Z,1009.78
2022-12-20T06:14:00.727Z,1009.79
2022-12-20T06:15:01.004Z,1009.76
2022-12-20T06:16:01.365Z,1009.82
2022-12-20T06:17:01.620Z,1009.79
2022-12-20T06:18:01.975Z,1009.78
2022-12-20T06:19:02.236Z,1009.74
2022-12-20T06:20:02.494Z,1009.78
2022-12-20T06:21:02.741Z,1009.79
2022-12-20T06:22:03.026Z,1009.81
2022-12-20T06:23:03.407Z,1009.85
2022-12-20T06:24:03.673Z,1009.89
2022-12-20T06:25:04.042Z,1009.91
2022-12-20T06:26:04.192Z,1009.85
2022-12-20T06:27:04.440Z,1009.87
2022-12-20T06:28:04.777Z,1009.84
2022-12-20T06:29:05.052Z,1009.82
2022-12-20T06:30:05.306Z,1009.76
2022-12-20T06:31:05.720Z,1009.72
2022-12-20T06:32:05.920Z,1009.70
2022-12-20T06:33:06.174Z,1009.71
2022-12-20T06:34:06.447Z,1009.74
2022-12-20T06:35:06.713Z,1009.77
2022-12-20T06:36:07.011Z,1009.67
2022-12-20T06:37:07.250Z,1009.65
2022-12-20T06:38:07.586Z,1009.62
2022-12-20T06:39:09.793Z,1009.57
2022-12-20T06:40:08.182Z,1009.60
2022-12-20T06:41:08.461Z,1009.61
2022-12-20T06:42:08.720Z,1009.64
2022-12-20T06:43:09.022Z,1009.65
2022-12-20T06:44:09.262Z,1009.63
2022-12-20T06:45:09.553Z,1009.65
2022-12-20T06:46:09.897Z,1009.62
2022-12-20T06:47:10.176Z,1009.64
2022-12-20T06:48:10.490Z,1009.65
2022-12-20T06:49:10.726Z,1009.61
2022-12-20T06:50:10.967Z,1009.67
2022-12-20T06:51:11.303Z,1009.64
2022-12-20T06:52:11.578Z,1009.61
2022-12-20T06:53:11.903Z,1009.56
2022-12-20T06:54:12.166Z,1009.56
2022-12-20T06:55:12.424Z,1009.52
2022-12-20T06:56:12.707Z,1009.51
2022-12-20T06:57:12.937Z,1009.52
2022-12-20T06:58:13.254Z,1009.53
2022-12-20T06:59:13.511Z,1009.53
2022-12-20T07:00:13.776Z,1009.49
2022-12-20T07:01:14.084Z,1009.46
2022-12-20T07:02:14.585Z,1009.47
2022-12-20T07:03:14.882Z,1009.45
2022-12-20T07:04:15.021Z,1009.44
2022-12-20T07:05:15.328Z,1009.45
2022-12-20T07:06:15.608Z,1009.43
2022-12-20T07:07:15.916Z,1009.40
2022-12-20T07:08:16.169Z,1009.43
2022-12-20T07:09:16.429Z,1009.39
2022-12-20T07:10:16.715Z,1009.46
2022-12-20T07:11:17.005Z,1009.50
2022-12-20T07:12:17.266Z,1009.52
2022-12-20T07:13:17.518Z,1009.50
2022-12-20T07:14:17.818Z,1009.47
2022-12-20T07:15:18.075Z,1009.43
2022-12-20T07:16:18.351Z,1009.33
2022-12-20T07:17:18.685Z,1009.32
2022-12-20T07:18:18.968Z,1009.21
2022-12-20T07:19:19.235Z,1009.19
2022-12-20T07:20:19.536Z,1009.16
2022-12-20T07:21:19.822Z,1009.14
2022-12-20T07:22:20.154Z,1009.12
2022-12-20T07:23:20.468Z,1009.13
2022-12-20T07:24:20.758Z,1009.11
2022-12-20T07:25:21.030Z,1009.15
2022-12-20T07:26:21.257Z,1009.15
2022-12-20T07:27:21.566Z,1009.15
2022-12-20T07:28:21.888Z,1009.08
2022-12-20T07:29:22.148Z,1009.08
2022-12-20T07:30:22.469Z,1009.09
2022-12-20T07:31:22.801Z,1009.05
2022-12-20T07:32:23.112Z,1009.05
2022-12-20T07:33:23.406Z,1009.07
2022-12-20T07:34:23.693Z,1009.02
2022-12-20T07:35:23.937Z,1009.02
2022-12-20T07:36:24.229Z,1009.04
2022-12-20T07:37:24.562Z,1009.03
2022-12-20T07:38:24.890Z,1009.07
2022-12-20T07:39:25.140Z,1009.07
2022-12-20T07:40:25.418Z,1009.05
2022-12-20T07:41:25.695Z,1009.08
2022-12-20T07:42:30.327Z,1009.04
2022-12-20T07:43:27.270Z,1009.04
2022-12-20T07:44:26.464Z,1009.10
2022-12-20T07:45:26.805Z,1009.16
2022-12-20T07:46:27.292Z,1009.16
2022-12-20T07:47:27.325Z,1009.19
2022-12-20T07:48:27.596Z,1009.18
2022-12-20T07:49:27.887Z,1009.14
2022-12-20T07:50:28.136Z,1009.15
2022-12-20T07:51:28.454Z,1009.15
2022-12-20T07:52:28.793Z,1009.23
2022-12-20T07:53:29.118Z,1009.17
2022-12-20T07:54:29.408Z,1009.15
2022-12-20T07:55:29.719Z,1009.14
2022-12-20T07:56:30.015Z,1009.14
2022-12-20T07:57:30.321Z,1009.17
2022-12-20T07:58:30.658Z,1009.11
2022-12-20T07:59:30.971Z,1009.09
2022-12-20T08:00:31.304Z,1009.08
2022-12-20T08:01:31.735Z,1009.08
2022-12-20T08:02:32.109Z,1009.07
2022-12-20T08:03:32.428Z,1009.10
2022-12-20T08:04:32.518Z,1009.10
2022-12-20T08:05:32.783Z,1009.10
2022-12-20T08:06:33.087Z,1009.15
2022-12-20T08:07:33.427Z,1009.16
2022-12-20T08:08:33.748Z,1009.13
2022-12-20T08:09:34.041Z,1009.12
2022-12-20T08:10:34.327Z,1009.10
2022-12-20T08:11:34.619Z,1009.10
2022-12-20T08:12:34.966Z,1009.17
2022-12-20T08:13:38.195Z,1009.07
2022-12-20T08:14:36.556Z,1009.05
2022-12-20T08:15:35.906Z,1008.97
2022-12-20T08:16:36.273Z,1008.95
2022-12-20T08:17:36.467Z,1008.94
2022-12-20T08:18:36.761Z,1008.91
2022-12-20T08:19:37.157Z,1008.88
2022-12-20T08:20:37.296Z,1008.83
2022-12-20T08:21:37.560Z,1008.85
2022-12-20T08:22:37.886Z,1008.92
2022-12-20T08:23:38.229Z,1008.91
2022-12-20T08:24:38.500Z,1008.87
2022-12-20T08:25:41.810Z,1008.89
2022-12-20T08:26:39.146Z,1008.89
2022-12-20T08:27:39.435Z,1008.91
2022-12-20T08:28:39.761Z,1008.93
2022-12-20T08:29:40.047Z,1009.04
2022-12-20T08:30:40.388Z,1009.04
2022-12-20T08:31:45.850Z,1009.04
2022-12-20T08:32:41.897Z,1009.02
2022-12-20T08:33:41.146Z,1009.06
2022-12-20T08:34:41.428Z,1008.96
2022-12-20T08:35:41.717Z,1008.97
2022-12-20T08:36:42.020Z,1008.96
2022-12-20T08:37:42.357Z,1008.97
2022-12-20T08:38:42.708Z,1008.96
2022-12-20T08:39:43.008Z,1008.95
2022-12-20T08:40:43.322Z,1008.89
2022-12-20T08:41:43.627Z,1008.92
2022-12-20T08:42:43.899Z,1008.94
2022-12-20T08:43:44.235Z,1008.90
2022-12-20T08:44:44.522Z,1008.87
2022-12-20T08:45:44.890Z,1008.82
2022-12-20T08:46:45.222Z,1008.87
2022-12-20T08:47:45.417Z,1008.84
2022-12-20T08:48:45.702Z,1008.84
2022-12-20T08:49:48.125Z,1008.88
2022-12-20T08:50:46.375Z,1008.85
2022-12-20T08:51:46.732Z,1008.85
2022-12-20T08:52:46.941Z,1008.86
2022-12-20T08:53:47.238Z,1008.83
2022-12-20T08:54:47.565Z,1008.81
2022-12-20T08:55:47.850Z,1008.82
2022-12-20T08:56:48.191Z,1008.82
2022-12-20T08:57:48.459Z,1008.78
2022-12-20T08:58:48.799Z,1008.88
2022-12-20T08:59:49.110Z,1008.88
2022-12-20T09:00:49.393Z,1008.88
2022-12-20T09:01:49.760Z,1008.86
2022-12-20T09:02:50.137Z,1008.86
2022-12-20T09:03:50.309Z,1008.90
2022-12-20T09:04:50.476Z,1008.89
2022-12-20T09:05:50.813Z,1008.93
2022-12-20T09:06:51.082Z,1008.94
2022-12-20T09:07:51.400Z,1008.97
2022-12-20T09:08:51.743Z,1009.02
2022-12-20T09:09:52.081Z,1008.99
2022-12-20T09:10:52.378Z,1009.01
2022-12-20T09:11:52.645Z,1009.03
2022-12-20T09:12:52.982Z,1008.99
2022-12-20T09:13:53.264Z,1008.95
2022-12-20T09:14:53.605Z,1008.96
2022-12-20T09:15:53.912Z,1008.97
2022-12-20T09:16:54.153Z,1008.91
2022-12-20T09:17:54.491Z,1008.96
2022-12-20T09:19:00.754Z,1008.98
2022-12-20T09:19:56.087Z,1009.02
2022-12-20T09:20:55.449Z,1008.99
2022-12-20T09:21:55.721Z,1009.02
2022-12-20T09:22:56.021Z,1009.08
2022-12-20T09:23:56.373Z,1009.08
2022-12-20T09:24:56.641Z,1009.10
2022-12-20T09:25:56.962Z,1009.10
2022-12-20T09:26:57.298Z,1009.09
2022-12-20T09:27:57.599Z,1009.09
2022-12-20T09:28:57.921Z,1009.04
2022-12-20T09:29:58.196Z,1009.02
2022-12-20T09:30:58.575Z,1009.08
2022-12-20T09:31:58.773Z,1009.08
2022-12-20T09:33:07.332Z,1009.12
2022-12-20T09:34:00.325Z,1009.10
2022-12-20T09:34:59.644Z,1009.05
2022-12-20T09:36:00.011Z,1009.06
2022-12-20T09:37:00.266Z,1009.03
2022-12-20T09:38:00.589Z,1009.06
2022-12-20T09:39:00.927Z,1009.07
2022-12-20T09:40:01.185Z,1009.06
2022-12-20T09:41:01.522Z,1009.08
2022-12-20T09:42:01.780Z,1009.06
2022-12-20T09:43:02.117Z,1009.03
2022-12-20T09:44:02.502Z,1009.03
2022-12-20T09:45:02.818Z,1009.02
2022-12-20T09:46:03.192Z,1009.05
2022-12-20T09:47:09.749Z,1009.04
2022-12-20T09:48:04.682Z,1009.00
2022-12-20T09:49:03.938Z,1009.02
2022-12-20T09:50:04.253Z,1009.06
2022-12-20T09:51:04.516Z,1009.03
2022-12-20T09:52:04.852Z,1009.02
2022-12-20T09:53:05.141Z,1009.07
2022-12-20T09:54:05.480Z,1008.97
2022-12-20T09:55:05.771Z,1009.03
2022-12-20T09:56:06.061Z,1008.95
2022-12-20T09:57:06.335Z,1008.93
2022-12-20T09:58:06.681Z,1008.96
2022-12-20T09:59:06.983Z,1008.96
2022-12-20T10:00:07.257Z,1008.91
2022-12-20T10:01:10.632Z,1008.89
2022-12-20T10:02:35.506Z,1008.95
2022-12-20T10:03:10.776Z,1008.93
2022-12-20T10:04:08.675Z,1008.87
2022-12-20T10:05:08.886Z,1008.88
2022-12-20T10:06:09.238Z,1008.83
2022-12-20T10:07:09.317Z,1008.86
2022-12-20T10:08:09.576Z,1008.76
2022-12-20T10:09:09.939Z,1008.78
2022-12-20T10:10:10.241Z,1008.78
2022-12-20T10:11:10.523Z,1008.81
2022-12-20T10:12:10.874Z,1008.80
2022-12-20T10:13:11.154Z,1008.79
2022-12-20T10:14:11.513Z,1008.87
2022-12-20T10:15:11.815Z,1008.92
2022-12-20T10:16:12.077Z,1008.97
2022-12-20T10:17:12.399Z,1008.93
2022-12-20T10:18:12.665Z,1008.96
2022-12-20T10:19:12.993Z,1008.92
2022-12-20T10:20:13.249Z,1008.95
2022-12-20T10:21:13.580Z,1008.98
2022-12-20T10:22:13.897Z,1008.98
2022-12-20T10:23:14.172Z,1009.01
2022-12-20T10:24:14.501Z,1008.97
2022-12-20T10:25:14.782Z,1009.00
2022-12-20T10:26:15.045Z,1009.04
2022-12-20T10:27:15.388Z,1008.99
2022-12-20T10:28:15.700Z,1008.94
2022-12-20T10:29:16.003Z,1009.00
2022-12-20T10:30:16.287Z,1008.95
2022-12-20T10:31:16.666Z,1008.88
2022-12-20T10:32:16.925Z,1008.87
2022-12-20T10:33:17.225Z,1008.81
2022-12-20T10:34:17.506Z,1008.78
2022-12-20T10:35:17.803Z,1008.75
2022-12-20T10:36:18.097Z,1008.71
2022-12-20T10:37:18.447Z,1008.67
2022-12-20T10:38:18.727Z,1008.64
2022-12-20T10:39:19.025Z,1008.66
2022-12-20T10:40:19.307Z,1008.60
2022-12-20T10:41:21.852Z,1008.58
2022-12-20T10:42:19.949Z,1008.56
2022-12-20T10:43:20.245Z,1008.44
2022-12-20T10:44:20.558Z,1008.43
2022-12-20T10:45:20.854Z,1008.37
2022-12-20T10:46:21.202Z,1008.37
2022-12-20T10:47:21.498Z,1008.41
2022-12-20T10:48:21.748Z,1008.39
2022-12-20T10:49:22.106Z,1008.34
2022-12-20T10:50:22.378Z,1008.35
2022-12-20T10:51:22.742Z,1008.39
2022-12-20T10:52:30.542Z,1008.31
2022-12-20T10:53:23.357Z,1008.33
2022-12-20T10:54:23.627Z,1008.37
2022-12-20T10:55:23.911Z,1008.34
2022-12-20T10:56:24.180Z,1008.37
2022-12-20T10:57:24.493Z,1008.41
2022-12-20T10:58:24.804Z,1008.37
2022-12-20T10:59:25.119Z,1008.40
2022-12-20T11:00:25.378Z,1008.33
2022-12-20T11:01:25.736Z,1008.25
2022-12-20T11:02:26.216Z,1008.22
2022-12-20T11:03:26.724Z,1008.22
2022-12-20T11:04:26.635Z,1008.20
2022-12-20T11:05:26.834Z,1008.17
2022-12-20T11:06:27.064Z,1008.24
2022-12-20T11:07:27.386Z,1008.24
2022-12-20T11:08:51.246Z,1008.23
2022-12-20T11:09:28.922Z,1008.25
2022-12-20T11:10:28.258Z,1008.29
2022-12-20T11:11:28.552Z,1008.24
2022-12-20T11:12:28.946Z,1008.22
2022-12-20T11:13:29.109Z,1008.16
2022-12-20T11:14:36.481Z,1008.16
2022-12-20T11:15:34.234Z,1008.14
2022-12-20T11:16:30.051Z,1008.13
2022-12-20T11:17:30.228Z,1008.11
2022-12-20T11:18:30.535Z,1008.14
2022-12-20T11:19:30.806Z,1008.14
2022-12-20T11:20:31.139Z,1008.09
2022-12-20T11:21:31.476Z,1008.14
2022-12-20T11:22:31.780Z,1008.14
2022-12-20T11:23:32.104Z,1008.11
2022-12-20T11:24:32.413Z,1008.08
2022-12-20T11:25:32.766Z,1008.07
2022-12-20T11:26:33.129Z,1007.99
2022-12-20T11:27:33.296Z,1007.93
2022-12-20T11:28:33.672Z,1007.99
2022-12-20T11:29:34.804Z,1007.96
2022-12-20T11:30:34.261Z,1007.89
2022-12-20T11:31:34.653Z,1007.85
2022-12-20T11:32:36.095Z,1007.85
2022-12-20T11:33:35.159Z,1007.79
2022-12-20T11:34:35.539Z,1007.79
2022-12-20T11:35:35.866Z,1007.70
2022-12-20T11:36:36.179Z,1007.71
2022-12-20T11:37:36.498Z,1007.71
2022-12-20T11:38:36.705Z,1007.68
2022-12-20T11:39:36.979Z,1007.72
2022-12-20T11:40:37.302Z,1007.68
2022-12-20T11:41:37.604Z,1007.66
2022-12-20T11:42:37.940Z,1007.68
2022-12-20T11:44:00.967Z,1007.67
2022-12-20T11:44:45.728Z,1007.70
2022-12-20T11:45:39.780Z,1007.72
2022-12-20T11:46:39.254Z,1007.71
2022-12-20T11:47:39.433Z,1007.68
2022-12-20T11:48:39.759Z,1007.72
2022-12-20T11:49:40.092Z,1007.69
2022-12-20T11:50:40.389Z,1007.68
2022-12-20T11:51:40.697Z,1007.68
2022-12-20T11:52:41.058Z,1007.67
2022-12-20T11:53:41.221Z,1007.60
2022-12-20T11:54:41.562Z,1007.59
2022-12-20T11:55:41.914Z,1007.65
2022-12-20T11:56:44.637Z,1007.54
2022-12-20T11:58:16.402Z,1007.57
2022-12-20T11:58:43.878Z,1007.49
2022-12-20T11:59:43.110Z,1007.53
2022-12-20T12:00:43.371Z,1007.49
2022-12-20T12:01:43.819Z,1007.51
2022-12-20T12:02:44.188Z,1007.49
2022-12-20T12:03:44.356Z,1007.50
2022-12-20T12:04:44.722Z,1007.43
2022-12-20T12:05:45.084Z,1007.56
2022-12-20T12:06:45.269Z,1007.51
2022-12-20T12:07:45.570Z,1007.50
2022-12-20T12:08:45.899Z,1007.48